createdAt,value
2023-01-08T00:10:01.649Z,101054.88
2023-01-08T00:12:28.748Z,101054.11
2023-01-08T00:14:55.614Z,101052.98
2023-01-08T00:17:22.566Z,101051.83
2023-01-08T00:19:49.675Z,101054.54
2023-01-08T00:22:16.736Z,101055.45
2023-01-08T00:24:43.926Z,101056.73
2023-01-08T00:27:10.962Z,101053.91
2023-01-08T00:29:37.900Z,101059.42
2023-01-08T00:32:05.031Z,101060.35
2023-01-08T00:34:32.168Z,101058.27
2023-01-08T00:36:59.169Z,101059.48
2023-01-08T00:39:26.287Z,101064.42
2023-01-08T00:41:53.211Z,101063.64
2023-01-08T00:44:20.067Z,101061.67
2023-01-08T00:46:47.036Z,101060.38
2023-01-08T00:49:13.940Z,101056.39
2023-01-08T00:51:40.862Z,101058.70
2023-01-08T00:54:07.948Z,101059.67
2023-01-08T00:56:34.913Z,101059.71
2023-01-08T00:59:01.819Z,101056.61
2023-01-08T01:01:28.775Z,101052.70
2023-01-08T01:03:55.763Z,101049.33
2023-01-08T01:06:22.735Z,101047.58
2023-01-08T01:08:50.138Z,101044.56
2023-01-08T01:11:22.797Z,101044.04
2023-01-08T01:13:50.482Z,101044.73
2023-01-08T01:16:17.959Z,101046.47
2023-01-08T01:18:44.977Z,101045.94
2023-01-08T01:21:23.678Z,101041.38
2023-01-08T01:23:50.748Z,101042.23
2023-01-08T01:26:18.524Z,101039.19
2023-01-08T01:28:47.398Z,101035.75
2023-01-08T01:31:14.520Z,101036.79
2023-01-08T01:33:41.663Z,101035.71
2023-01-08T01:36:10.052Z,101035.42
2023-01-08T01:38:37.165Z,101031.52
2023-01-08T01:41:04.114Z,101032.23
2023-01-08T01:43:41.670Z,101034.90
2023-01-08T01:46:35.007Z,101038.34
2023-01-08T01:49:05.254Z,101038.45
2023-01-08T01:51:33.521Z,101035.75
2023-01-08T01:54:01.502Z,101039.52
2023-01-08T01:56:28.974Z,101041.14
2023-01-08T01:58:55.919Z,101040.00
2023-01-08T02:01:22.940Z,101038.05
2023-01-08T02:03:50.112Z,101037.75
2023-01-08T02:06:35.420Z,101038.09
2023-01-08T02:09:15.910Z,101034.73
2023-01-08T02:12:19.334Z,101032.08
2023-01-08T02:15:07.610Z,101039.21
2023-01-08T02:17:50.591Z,101039.40
2023-01-08T02:20:19.520Z,101035.91
2023-01-08T02:23:10.530Z,101040.52
2023-01-08T02:26:02.125Z,101042.84
2023-01-08T02:28:28.947Z,101045.02
2023-01-08T02:30:55.861Z,101043.81
2023-01-08T02:33:27.886Z,101044.83
2023-01-08T02:36:10.988Z,101053.40
2023-01-08T02:38:39.985Z,101052.51
2023-01-08T02:41:09.614Z,101050.63
2023-01-08T02:43:41.393Z,101042.05
2023-01-08T02:46:09.197Z,101038.52
2023-01-08T02:48:42.044Z,101041.56
2023-01-08T02:51:11.485Z,101040.96
2023-01-08T02:53:41.471Z,101048.10
2023-01-08T02:56:10.430Z,101049.00
2023-01-08T02:58:37.549Z,101044.37
2023-01-08T03:01:06.321Z,101042.29
2023-01-08T03:03:33.277Z,101039.66
2023-01-08T03:06:05.814Z,101040.81
2023-01-08T03:08:40.198Z,101037.26
2023-01-08T03:11:08.888Z,101035.40
2023-01-08T03:14:01.255Z,101033.39
2023-01-08T03:16:36.593Z,101024.22
2023-01-08T03:19:10.377Z,101021.62
2023-01-08T03:21:37.339Z,101019.38
2023-01-08T03:24:04.424Z,101018.53
2023-01-08T03:26:31.317Z,101017.49
2023-01-08T03:28:58.215Z,101022.23
2023-01-08T03:31:25.841Z,101024.41
2023-01-08T03:33:52.835Z,101032.86
2023-01-08T03:36:22.595Z,101039.42
2023-01-08T03:38:57.002Z,101045.44
2023-01-08T03:41:23.872Z,101040.65
2023-01-08T03:43:50.892Z,101040.46
2023-01-08T03:46:29.210Z,101043.79
2023-01-08T03:48:56.759Z,101032.88
2023-01-08T03:51:24.145Z,101032.56
2023-01-08T03:53:51.236Z,101036.59
2023-01-08T03:56:18.162Z,101037.31
2023-01-08T03:58:45.131Z,101042.58
2023-01-08T04:01:12.178Z,101045.98
2023-01-08T04:03:39.252Z,101042.16
2023-01-08T04:06:06.434Z,101040.85
2023-01-08T04:08:33.372Z,101043.29
2023-01-08T04:11:00.231Z,101039.59
2023-01-08T04:13:27.127Z,101041.85
2023-01-08T04:15:54.224Z,101039.89
2023-01-08T04:18:21.237Z,101037.10
2023-01-08T04:20:48.398Z,101040.04
2023-01-08T04:23:15.399Z,101040.32
2023-01-08T04:25:42.383Z,101036.77
2023-01-08T04:28:09.231Z,101035.43
2023-01-08T04:30:37.319Z,101035.63
2023-01-08T04:33:04.984Z,101034.92
2023-01-08T04:35:32.083Z,101031.65
2023-01-08T04:37:59.015Z,101030.84
2023-01-08T04:40:25.923Z,101037.54
2023-01-08T04:42:52.794Z,101038.65
2023-01-08T04:45:19.783Z,101040.92
2023-01-08T04:47:47.085Z,101043.71
2023-01-08T04:50:14.035Z,101048.44
2023-01-08T04:52:40.956Z,101041.67
2023-01-08T04:55:08.050Z,101040.72
2023-01-08T04:57:34.930Z,101043.23
2023-01-08T05:00:01.848Z,101048.65
2023-01-08T05:02:28.911Z,101049.87
2023-01-08T05:04:55.984Z,101050.42
2023-01-08T05:07:23.095Z,101049.41
2023-01-08T05:09:49.927Z,101054.13
2023-01-08T05:12:16.792Z,101061.44
2023-01-08T05:14:43.826Z,101066.13
2023-01-08T05:17:11.022Z,101068.81
2023-01-08T05:19:38.486Z,101069.94
2023-01-08T05:22:05.523Z,101067.55
2023-01-08T05:24:32.520Z,101059.21
2023-01-08T05:26:59.499Z,101054.70
2023-01-08T05:29:26.456Z,101048.13
2023-01-08T05:31:54.012Z,101049.80
2023-01-08T05:34:21.010Z,101056.88
2023-01-08T05:36:47.970Z,101055.77
2023-01-08T05:39:15.225Z,101060.36
2023-01-08T05:41:42.158Z,101063.10
2023-01-08T05:44:10.244Z,101059.52
2023-01-08T05:46:37.352Z,101057.96
2023-01-08T05:49:04.441Z,101062.00
2023-01-08T05:51:31.430Z,101066.39
2023-01-08T05:53:58.330Z,101065.11
2023-01-08T05:56:25.301Z,101064.62
2023-01-08T05:58:54.872Z,101064.42
2023-01-08T06:01:21.832Z,101076.55
2023-01-08T06:03:48.849Z,101073.48
2023-01-08T06:06:16.885Z,101073.84
2023-01-08T06:08:43.830Z,101076.47
2023-01-08T06:11:11.178Z,101080.95
2023-01-08T06:13:43.856Z,101078.64
2023-01-08T06:16:10.893Z,101077.71
2023-01-08T06:18:37.839Z,101081.58
2023-01-08T06:21:05.370Z,101079.73
2023-01-08T06:23:32.779Z,101080.23
2023-01-08T06:26:00.174Z,101079.94
2023-01-08T06:28:27.211Z,101078.90
2023-01-08T06:30:54.425Z,101079.27
2023-01-08T06:33:21.815Z,101079.08
2023-01-08T06:35:49.005Z,101078.75
2023-01-08T06:38:19.176Z,101078.27
2023-01-08T06:40:46.957Z,101075.36
2023-01-08T06:43:13.912Z,101074.48
2023-01-08T06:45:40.763Z,101072.67
2023-01-08T06:48:07.859Z,101072.77
2023-01-08T06:50:35.115Z,101074.00
2023-01-08T06:53:02.035Z,101074.40
2023-01-08T06:55:28.879Z,101074.63
2023-01-08T06:57:58.825Z,101073.39
2023-01-08T07:00:26.383Z,101074.89
2023-01-08T07:02:53.759Z,101072.91
2023-01-08T07:05:20.921Z,101075.71
2023-01-08T07:07:47.915Z,101072.30
2023-01-08T07:10:14.838Z,101076.08
2023-01-08T07:12:41.778Z,101076.77
2023-01-08T07:15:09.304Z,101072.85
2023-01-08T07:17:36.293Z,101073.29
2023-01-08T07:20:03.433Z,101077.22
2023-01-08T07:22:30.293Z,101073.83
2023-01-08T07:24:57.196Z,101076.71
2023-01-08T07:27:24.120Z,101074.52
2023-01-08T07:29:50.992Z,101074.72
2023-01-08T07:32:17.904Z,101077.26
2023-01-08T07:34:44.917Z,101083.25
2023-01-08T07:37:11.772Z,101080.52
2023-01-08T07:39:38.711Z,101077.90
2023-01-08T07:42:05.756Z,101076.50
2023-01-08T07:44:32.707Z,101075.63
2023-01-08T07:46:59.608Z,101079.02
2023-01-08T07:49:26.867Z,101081.40
2023-01-08T07:51:53.846Z,101079.90
2023-01-08T07:54:20.862Z,101078.72
2023-01-08T07:56:47.796Z,101074.55
2023-01-08T07:59:14.746Z,101069.65
2023-01-08T08:01:41.741Z,101072.27
2023-01-08T08:04:09.595Z,101073.31
2023-01-08T08:06:36.484Z,101075.35
2023-01-08T08:09:03.897Z,101074.35
2023-01-08T08:11:30.904Z,101071.48
2023-01-08T08:13:57.925Z,101073.98
2023-01-08T08:16:24.855Z,101073.14
2023-01-08T08:18:51.860Z,101076.27
2023-01-08T08:21:18.714Z,101082.20
2023-01-08T08:23:45.677Z,101084.98
2023-01-08T08:26:12.616Z,101091.63
2023-01-08T08:28:39.509Z,101090.98
2023-01-08T08:31:06.506Z,101093.77
2023-01-08T08:33:33.437Z,101090.20
2023-01-08T08:36:00.422Z,101087.62
2023-01-08T08:38:27.365Z,101083.58
2023-01-08T08:40:54.287Z,101081.52
2023-01-08T08:43:21.337Z,101080.92
2023-01-08T08:45:48.235Z,101080.15
2023-01-08T08:48:17.003Z,101075.52
2023-01-08T08:50:43.978Z,101065.59
2023-01-08T08:53:10.918Z,101063.27
2023-01-08T08:55:37.829Z,101065.27
2023-01-08T08:58:11.039Z,101063.73
2023-01-08T09:00:38.957Z,101056.92
2023-01-08T09:03:05.999Z,101055.21
2023-01-08T09:05:36.563Z,101055.55
2023-01-08T09:08:03.497Z,101055.17
2023-01-08T09:10:30.433Z,101052.84
2023-01-08T09:12:57.309Z,101058.83
2023-01-08T09:15:24.281Z,101049.69
2023-01-08T09:17:57.429Z,101044.28
2023-01-08T09:20:25.121Z,101048.29
2023-01-08T09:22:52.118Z,101051.02
2023-01-08T09:25:18.974Z,101054.98
2023-01-08T09:27:46.257Z,101051.90
2023-01-08T09:30:13.318Z,101050.77
2023-01-08T09:32:40.284Z,101057.34
2023-01-08T09:35:07.470Z,101050.02
2023-01-08T09:37:34.411Z,101047.48
2023-01-08T09:40:03.344Z,101045.13
2023-01-08T09:42:30.626Z,101040.77
2023-01-08T09:44:57.526Z,101042.64
2023-01-08T09:47:28.814Z,101041.31
2023-01-08T09:49:58.647Z,101041.86
2023-01-08T09:52:25.820Z,101041.58
2023-01-08T09:54:52.874Z,101043.73
2023-01-08T09:57:20.837Z,101039.30
2023-01-08T09:59:48.397Z,101040.92
2023-01-08T10:02:23.228Z,101031.61
2023-01-08T10:04:58.234Z,101030.55
2023-01-08T10:07:25.957Z,101023.27
2023-01-08T10:09:53.075Z,101018.70
2023-01-08T10:12:26.511Z,101019.84
2023-01-08T10:14:54.476Z,101019.21
2023-01-08T10:17:41.155Z,101013.40
2023-01-08T10:20:14.875Z,101013.97
2023-01-08T10:22:42.057Z,101012.83
2023-01-08T10:25:14.108Z,101018.98
2023-01-08T10:28:01.088Z,101021.24
2023-01-08T10:30:31.120Z,101023.26
2023-01-08T10:33:02.237Z,101023.32
2023-01-08T10:35:38.196Z,101016.70
2023-01-08T10:38:05.214Z,101010.38
2023-01-08T10:40:46.179Z,101015.13
2023-01-08T10:43:18.844Z,101013.52
2023-01-08T10:45:59.344Z,101010.80
2023-01-08T10:48:33.085Z,101010.58
2023-01-08T10:51:29.085Z,101002.76
2023-01-08T10:54:01.203Z,100999.71
2023-01-08T10:56:29.665Z,100996.23
2023-01-08T10:58:56.686Z,100995.20
2023-01-08T11:01:29.044Z,100994.92
2023-01-08T11:04:01.268Z,100994.67
2023-01-08T11:06:38.017Z,100998.59
2023-01-08T11:09:21.190Z,100999.09
2023-01-08T11:11:48.224Z,100997.00
2023-01-08T11:14:26.779Z,100995.84
2023-01-08T11:16:53.810Z,100995.55
2023-01-08T11:19:24.466Z,100990.08
2023-01-08T11:22:01.604Z,100996.31
2023-01-08T11:24:35.607Z,101000.96
2023-01-08T11:27:14.765Z,100999.64
2023-01-08T11:29:41.661Z,100998.68
2023-01-08T11:32:18.309Z,100996.76
2023-01-08T11:34:58.903Z,100991.52
2023-01-08T11:37:36.390Z,100997.70
2023-01-08T11:40:03.794Z,101003.34
2023-01-08T11:42:33.822Z,100999.63
2023-01-08T11:45:27.009Z,100992.31
2023-01-08T11:47:56.843Z,100988.45
2023-01-08T11:50:23.880Z,100986.65
2023-01-08T11:53:20.843Z,100988.00
2023-01-08T11:56:15.897Z,100984.15
2023-01-08T11:58:45.942Z,100981.38
2023-01-08T12:01:26.032Z,100984.23
2023-01-08T12:04:19.402Z,100980.81
2023-01-08T12:07:01.485Z,100987.05
2023-01-08T12:09:43.046Z,100983.59
2023-01-08T12:12:28.715Z,100979.23
2023-01-08T12:15:12.305Z,100976.23
2023-01-08T12:17:46.599Z,100974.58
2023-01-08T12:20:39.867Z,100972.41
2023-01-08T12:23:31.845Z,100974.85
2023-01-08T12:26:23.533Z,100976.15
2023-01-08T12:29:09.174Z,100971.39
2023-01-08T13:16:14.545Z,100942.02
2023-01-08T13:18:41.607Z,100947.13
2023-01-08T13:21:10.121Z,100949.27
2023-01-08T13:23:38.449Z,100946.85
2023-01-08T13:26:06.076Z,100946.66
2023-01-08T13:28:45.522Z,100946.89
2023-01-08T13:31:38.490Z,100947.52
2023-01-08T13:34:17.431Z,100943.26
2023-01-08T13:36:55.262Z,100935.73
2023-01-08T13:39:26.148Z,100938.20
2023-01-08T13:42:03.190Z,100942.26
2023-01-08T13:44:34.648Z,100947.41
2023-01-08T13:47:02.276Z,100941.30
2023-01-08T13:49:42.737Z,100935.59
2023-01-08T13:52:44.488Z,100937.77
2023-01-08T13:55:28.283Z,100937.11
2023-01-08T13:57:58.338Z,100931.88
2023-01-08T14:00:29.341Z,100928.52
2023-01-08T14:02:56.533Z,100923.56
2023-01-08T14:05:27.736Z,100922.77
2023-01-08T14:07:54.990Z,100922.71
2023-01-08T14:10:22.026Z,100918.31
2023-01-08T14:12:49.478Z,100915.53
2023-01-08T14:15:22.091Z,100916.07
2023-01-08T14:17:49.127Z,100913.95
2023-01-08T14:20:29.721Z,100912.02
2023-01-08T14:22:56.630Z,100903.02
2023-01-08T14:25:23.521Z,100901.93
2023-01-08T14:28:04.062Z,100897.72
2023-01-08T14:30:31.223Z,100894.71
2023-01-08T14:32:58.290Z,100891.34
2023-01-08T14:35:32.635Z,100890.73
2023-01-08T14:38:00.626Z,100895.75
2023-01-08T14:40:32.864Z,100889.91
2023-01-08T14:43:03.117Z,100888.27
2023-01-08T14:45:31.756Z,100887.70
2023-01-08T14:48:00.414Z,100888.64
2023-01-08T14:50:27.566Z,100887.86
2023-01-08T14:53:17.923Z,100884.09
2023-01-08T14:55:49.126Z,100880.02
2023-01-08T14:58:20.990Z,100876.41
2023-01-08T15:00:57.409Z,100883.31
2023-01-08T15:03:37.310Z,100885.48
2023-01-08T15:06:07.474Z,100882.77
2023-01-08T15:08:42.126Z,100884.86
2023-01-08T15:11:24.167Z,100882.33
2023-01-08T15:13:51.616Z,100885.77
2023-01-08T15:16:24.068Z,100885.04
2023-01-08T15:18:57.428Z,100884.24
2023-01-08T15:21:24.396Z,100887.33
2023-01-08T15:23:54.290Z,100891.44
2023-01-08T20:37:11.326Z,100830.55
2023-01-08T20:39:38.792Z,100831.95
2023-01-08T20:42:06.340Z,100831.64
2023-01-08T20:44:33.391Z,100832.28
2023-01-08T20:47:01.141Z,100837.27
2023-01-08T20:49:29.712Z,100832.60
2023-01-08T20:51:59.429Z,100830.52
2023-01-08T20:54:27.177Z,100828.77
2023-01-08T20:56:55.716Z,100825.83
2023-01-08T20:59:24.233Z,100828.83
2023-01-08T21:01:51.261Z,100826.05
2023-01-08T21:04:18.617Z,100825.50
2023-01-08T21:06:45.619Z,100822.90
2023-01-08T21:09:14.091Z,100821.55
2023-01-08T21:11:41.405Z,100819.64
2023-01-08T21:14:08.481Z,100810.09
2023-01-08T21:16:35.882Z,100809.86
2023-01-08T21:19:02.993Z,100805.34
2023-01-08T21:21:33.103Z,100794.58
2023-01-08T21:24:01.106Z,100789.29
2023-01-08T21:26:28.714Z,100794.98
2023-01-08T21:28:56.583Z,100795.17
2023-01-08T21:31:28.596Z,100796.46
2023-01-08T21:33:56.706Z,100802.42
2023-01-08T21:36:25.187Z,100805.30
2023-01-08T21:38:52.394Z,100810.13
2023-01-08T21:41:39.980Z,100809.25
2023-01-08T21:44:30.520Z,100808.90
2023-01-08T21:47:00.781Z,100804.58
2023-01-08T21:49:27.852Z,100796.73
2023-01-08T21:52:13.365Z,100789.52
2023-01-08T21:54:40.377Z,100784.10
2023-01-08T21:57:07.525Z,100773.79
2023-01-08T21:59:34.576Z,100770.98
2023-01-08T22:02:02.105Z,100765.68
2023-01-08T22:04:29.327Z,100758.34
2023-01-08T22:06:56.366Z,100766.89
2023-01-08T22:09:23.406Z,100770.77
2023-01-08T22:11:50.418Z,100775.56
2023-01-08T22:14:17.650Z,100764.65
2023-01-08T22:16:44.575Z,100756.98
2023-01-08T22:19:11.540Z,100756.48
2023-01-08T22:21:39.149Z,100751.95
2023-01-08T22:24:06.312Z,100753.09
2023-01-08T22:26:35.308Z,100750.55
2023-01-08T22:29:03.284Z,100729.88
2023-01-08T22:31:30.203Z,100728.20
2023-01-08T22:33:58.086Z,100732.08
2023-01-08T22:36:25.052Z,100735.59
2023-01-08T22:38:52.137Z,100737.07
2023-01-08T22:41:21.136Z,100733.43
2023-01-08T22:43:48.340Z,100729.97
2023-01-08T22:46:16.130Z,100720.61
2023-01-08T22:48:43.518Z,100718.39
2023-01-08T22:51:10.727Z,100709.88
2023-01-08T22:53:37.811Z,100712.06
2023-01-08T22:56:12.313Z,100709.49
2023-01-08T22:58:40.304Z,100705.77
2023-01-08T23:01:20.765Z,100703.04
2023-01-08T23:03:51.627Z,100696.79
2023-01-08T23:06:19.246Z,100700.17
2023-01-08T23:08:46.300Z,100700.27
2023-01-08T23:11:14.313Z,100699.54
2023-01-08T23:13:41.369Z,100699.99
2023-01-08T23:16:09.877Z,100693.92
2023-01-08T23:18:36.880Z,100693.75
2023-01-08T23:21:11.868Z,100694.44
2023-01-08T23:23:38.903Z,100690.73
2023-01-08T23:26:27.052Z,100692.10
2023-01-08T23:28:54.628Z,100692.36
2023-01-08T23:31:26.569Z,100691.41
2023-01-08T23:33:53.533Z,100684.27
2023-01-08T23:36:21.527Z,100676.07
2023-01-08T23:38:50.097Z,100668.77
2023-01-08T23:41:18.647Z,100672.65
2023-01-08T23:43:46.178Z,100671.23
2023-01-08T23:46:13.671Z,100667.98
2023-01-08T23:48:40.997Z,100664.92
2023-01-08T23:51:08.034Z,100671.52
2023-01-08T23:53:34.978Z,100671.52
2023-01-08T23:56:02.001Z,100670.48
2023-01-08T23:58:28.986Z,100669.26
